Terminal Aerodrome Forecast
Issued by NWS

Home | Current Version | Previous Version | Text Only | Print | Product List | Glossary Off
Versions: 1 2 3 4 5 6 7 8 9 10 11 12 13 14 15

000
FTUS43 KBIS 240300 AAA
TAFDIK
TAF AMD
KDIK 240302Z 2403/2424 27003KT 2SM BR SKC
     FM240500 VRB03KT 3/4SM BR SCT300
     FM240800 23007KT 5SM BR BKN300
     FM241400 20012KT P6SM BKN100=

USA.gov is the U.S. government's official web portal to all federal, state and local government web resources and services.